MV Sally Archer — WDB7650 — position and weather

sailwx.info

Track history (hours):
 
Tides and Currents Weather Stations Pressure Air Temp Water Temp Dewpoint Dewpoint Depression Visibility Wind Speed Wind Dir Waves Ship Positions

MV Sally Archer

Owner: American River Transportation Co., Saint Louis, MO. More information available from US FCC via Universal Licensing System and Coast Guard Vessel Documentation Center.

Last reported at 2018-Jun-18 08:26 UTC. Time now 2018-Jun-18 09:30 UTC.
Position N 32°41' W 091°04'.

Length 60 m.

Type: Towing. MMSI: 366945650.

Date/timePositionNaut miles runAvg speedWind from/ knotsBaromVisibWave heightAir tempDewpointWater temp
2018-Jun-18 08:26N 32°41' W 091°04'2 1.7
2018-Jun-18 07:27N 32°41' W 091°06'0 0.1
2018-Jun-18 04:31N 32°40' W 091°06'0 3.2
2018-Jun-18 04:28N 32°40' W 091°07'2 3.4
2018-Jun-18 04:00N 32°40' W 091°08'2 4.0
2018-Jun-18 03:30N 32°38' W 091°09'1 2.7
2018-Jun-18 03:00N 32°36' W 091°09'0 0.0
2018-Jun-18 02:30N 32°36' W 091°09'0 0.0
2018-Jun-18 01:58N 32°36' W 091°09'1 2.6
2018-Jun-18 01:30N 32°36' W 091°08'2 4.5
2018-Jun-18 01:00N 32°34' W 091°06'2 4.2
2018-Jun-18 00:30N 32°32' W 091°06'3 5.1
2018-Jun-18 00:00N 32°29' W 091°07'2 4.7
2018-Jun-17 23:30N 32°27' W 091°05'2 4.1
2018-Jun-17 23:00N 32°26' W 091°03'2 3.8
2018-Jun-17 22:30N 32°26' W 091°01'2 4.1
2018-Jun-17 22:00N 32°24' W 090°60'2 4.3
2018-Jun-17 21:30N 32°22' W 091°00'2 4.0
2018-Jun-17 21:00N 32°21' W 090°58'1 1.7
2018-Jun-17 20:30N 32°21' W 090°57'0 0.3
2018-Jun-17 20:00N 32°21' W 090°57'0 0.5
2018-Jun-17 19:30N 32°21' W 090°57'2 3.6
2018-Jun-17 19:00N 32°21' W 090°55'2 3.9
2018-Jun-17 18:30N 32°19' W 090°55'2 5.0
2018-Jun-17 18:00N 32°17' W 090°57'2 4.2
2018-Jun-17 17:30N 32°15' W 090°58'2 4.6
2018-Jun-17 17:00N 32°13' W 090°59'2 4.6
2018-Jun-17 16:30N 32°11' W 090°60'2 4.3
2018-Jun-17 16:00N 32°09' W 091°00'2 4.1
2018-Jun-17 15:30N 32°07' W 091°02'2 4.2
2018-Jun-17 15:00N 32°08' W 091°04'2 4.1
2018-Jun-17 14:30N 32°07' W 091°06'5 2.8
2018-Jun-17 12:53N 32°03' W 091°03'2 2.9
2018-Jun-17 12:12N 32°02' W 091°04'1 4.6
2018-Jun-17 11:58N 32°01' W 091°05'3 4.3
2018-Jun-17 11:16N 31°59' W 091°08'  
2018-Jun-13 07:40N 31°15' W 091°34'1 8.9
2018-Jun-13 07:30N 31°16' W 091°33'9 7.0
2018-Jun-13 06:12N 31°24' W 091°29'1 7.4
2018-Jun-13 06:00N 31°25' W 091°30'38 6.2
2018-Jun-12 23:54N 31°59' W 091°10'3 7.3
2018-Jun-12 23:29N 31°59' W 091°07'7 6.0
2018-Jun-12 22:18N 32°06' W 091°06'1 4.0
2018-Jun-12 21:56N 32°08' W 091°06'1 3.3
2018-Jun-12 21:30N 32°08' W 091°05'4 7.2
2018-Jun-12 21:00N 32°08' W 091°01'3 6.8
2018-Jun-12 20:30N 32°11' W 090°60'4 7.3
2018-Jun-12 20:00N 32°15' W 090°59'4 7.3
2018-Jun-12 19:30N 32°18' W 090°56'3 6.0
2018-Jun-12 19:00N 32°20' W 090°54'2 4.0
2018-Jun-12 18:30N 32°21' W 090°56'3 7.0
2018-Jun-12 18:00N 32°22' W 091°00'3 6.6
2018-Jun-12 17:30N 32°25' W 091°00'4 7.1
2018-Jun-12 17:00N 32°27' W 091°04'3 6.8
2018-Jun-12 16:30N 32°29' W 091°07'4 7.3
2018-Jun-12 16:00N 32°33' W 091°06'3 6.9
2018-Jun-12 15:30N 32°36' W 091°08'4 7.1
2018-Jun-12 14:57N 32°40' W 091°09'5 3.2
2018-Jun-12 13:16N 32°45' W 091°09'3 6.8
2018-Jun-12 12:46N 32°48' W 091°09'  
Track history (hours):
 
Tides and Currents Weather Stations Pressure Air Temp Water Temp Dewpoint Dewpoint Depression Visibility Wind Speed Wind Dir Waves Ship Positions

MV Sally Archer

Owner: American River Transportation Co., Saint Louis, MO. More information available from US FCC via Universal Licensing System and Coast Guard Vessel Documentation Center.

Last reported at 2018-Jun-18 08:26 UTC. Time now 2018-Jun-18 09:30 UTC.
Position N 32°41' W 091°04'.

Length 60 m.

Type: Towing. MMSI: 366945650.

Date/timePositionNaut miles runAvg speedWind from/ knotsBaromVisibWave heightAir tempDewpointWater temp
2018-Jun-18 08:26N 32°41' W 091°04'2 1.7
2018-Jun-18 07:27N 32°41' W 091°06'0 0.1
2018-Jun-18 04:31N 32°40' W 091°06'0 3.2
2018-Jun-18 04:28N 32°40' W 091°07'2 3.4
2018-Jun-18 04:00N 32°40' W 091°08'2 4.0
2018-Jun-18 03:30N 32°38' W 091°09'1 2.7
2018-Jun-18 03:00N 32°36' W 091°09'0 0.0
2018-Jun-18 02:30N 32°36' W 091°09'0 0.0
2018-Jun-18 01:58N 32°36' W 091°09'1 2.6
2018-Jun-18 01:30N 32°36' W 091°08'2 4.5
2018-Jun-18 01:00N 32°34' W 091°06'2 4.2
2018-Jun-18 00:30N 32°32' W 091°06'3 5.1
2018-Jun-18 00:00N 32°29' W 091°07'2 4.7
2018-Jun-17 23:30N 32°27' W 091°05'2 4.1
2018-Jun-17 23:00N 32°26' W 091°03'2 3.8
2018-Jun-17 22:30N 32°26' W 091°01'2 4.1
2018-Jun-17 22:00N 32°24' W 090°60'2 4.3
2018-Jun-17 21:30N 32°22' W 091°00'2 4.0
2018-Jun-17 21:00N 32°21' W 090°58'1 1.7
2018-Jun-17 20:30N 32°21' W 090°57'0 0.3
2018-Jun-17 20:00N 32°21' W 090°57'0 0.5
2018-Jun-17 19:30N 32°21' W 090°57'2 3.6
2018-Jun-17 19:00N 32°21' W 090°55'2 3.9
2018-Jun-17 18:30N 32°19' W 090°55'2 5.0
2018-Jun-17 18:00N 32°17' W 090°57'2 4.2
2018-Jun-17 17:30N 32°15' W 090°58'2 4.6
2018-Jun-17 17:00N 32°13' W 090°59'2 4.6
2018-Jun-17 16:30N 32°11' W 090°60'2 4.3
2018-Jun-17 16:00N 32°09' W 091°00'2 4.1
2018-Jun-17 15:30N 32°07' W 091°02'2 4.2
2018-Jun-17 15:00N 32°08' W 091°04'2 4.1
2018-Jun-17 14:30N 32°07' W 091°06'5 2.8
2018-Jun-17 12:53N 32°03' W 091°03'2 2.9
2018-Jun-17 12:12N 32°02' W 091°04'1 4.6
2018-Jun-17 11:58N 32°01' W 091°05'3 4.3
2018-Jun-17 11:16N 31°59' W 091°08'  
2018-Jun-13 07:40N 31°15' W 091°34'1 8.9
2018-Jun-13 07:30N 31°16' W 091°33'9 7.0
2018-Jun-13 06:12N 31°24' W 091°29'1 7.4
2018-Jun-13 06:00N 31°25' W 091°30'38 6.2
2018-Jun-12 23:54N 31°59' W 091°10'3 7.3
2018-Jun-12 23:29N 31°59' W 091°07'7 6.0
2018-Jun-12 22:18N 32°06' W 091°06'1 4.0
2018-Jun-12 21:56N 32°08' W 091°06'1 3.3
2018-Jun-12 21:30N 32°08' W 091°05'4 7.2
2018-Jun-12 21:00N 32°08' W 091°01'3 6.8
2018-Jun-12 20:30N 32°11' W 090°60'4 7.3
2018-Jun-12 20:00N 32°15' W 090°59'4 7.3
2018-Jun-12 19:30N 32°18' W 090°56'3 6.0
2018-Jun-12 19:00N 32°20' W 090°54'2 4.0
2018-Jun-12 18:30N 32°21' W 090°56'3 7.0
2018-Jun-12 18:00N 32°22' W 091°00'3 6.6
2018-Jun-12 17:30N 32°25' W 091°00'4 7.1
2018-Jun-12 17:00N 32°27' W 091°04'3 6.8
2018-Jun-12 16:30N 32°29' W 091°07'4 7.3
2018-Jun-12 16:00N 32°33' W 091°06'3 6.9
2018-Jun-12 15:30N 32°36' W 091°08'4 7.1
2018-Jun-12 14:57N 32°40' W 091°09'5 3.2
2018-Jun-12 13:16N 32°45' W 091°09'3 6.8
2018-Jun-12 12:46N 32°48' W 091°09'  

Dump ship's entire track history